Terminal Aerodrome Forecast
Issued by NWS Charleston, WV

Current Version | Previous Version | Text Only | Print | Product List | Glossary Off
Versions: 1 2 3 4 5 6 7 8 9 10 11 12 13 14 15 16 17 18 19 20 21 22 23 24

000
FTUS41 KRLX 301500 AAA
TAFEKN
TAF AMD
KEKN 301502Z 3015/0112 25005KT P6SM BKN060 OVC090
     FM301800 18007KT 6SM -SHRA BKN040
     FM302200 01004KT 5SM -SHRA OVC040
     FM010100 VRB03KT 5SM -SHRA BR OVC030
     FM010600 33004KT 3SM BR OVC014=

USA.gov is the U.S. government's official web portal to all federal, state and local government web resources and services.